sensor_id;sensor_type;location;lat;lon;timestamp;temperature;humidity
40289;DHT22;28991;52.028;5.526;2023-09-19T00:01:07;23.90;64.30
40289;DHT22;28991;52.028;5.526;2023-09-19T00:03:37;23.90;64.30
40289;DHT22;28991;52.028;5.526;2023-09-19T00:06:04;23.90;64.30
40289;DHT22;28991;52.028;5.526;2023-09-19T00:08:31;23.90;64.30
40289;DHT22;28991;52.028;5.526;2023-09-19T00:10:58;23.90;64.30
40289;DHT22;28991;52.028;5.526;2023-09-19T00:13:31;23.90;64.30
40289;DHT22;28991;52.028;5.526;2023-09-19T00:15:57;23.80;64.30
40289;DHT22;28991;52.028;5.526;2023-09-19T00:18:24;23.80;64.30
40289;DHT22;28991;52.028;5.526;2023-09-19T00:20:57;23.80;64.30
40289;DHT22;28991;52.028;5.526;2023-09-19T00:23:22;23.80;64.30
40289;DHT22;28991;52.028;5.526;2023-09-19T00:25:50;23.90;64.30
40289;DHT22;28991;52.028;5.526;2023-09-19T00:28:17;23.80;64.30
40289;DHT22;28991;52.028;5.526;2023-09-19T00:30:44;23.80;64.30
40289;DHT22;28991;52.028;5.526;2023-09-19T00:33:10;23.80;64.30
40289;DHT22;28991;52.028;5.526;2023-09-19T00:35:36;23.80;64.30
40289;DHT22;28991;52.028;5.526;2023-09-19T00:38:02;23.90;64.40
40289;DHT22;28991;52.028;5.526;2023-09-19T00:40:29;23.80;64.30
40289;DHT22;28991;52.028;5.526;2023-09-19T00:42:58;23.80;64.30
40289;DHT22;28991;52.028;5.526;2023-09-19T00:45:25;23.80;64.30
40289;DHT22;28991;52.028;5.526;2023-09-19T00:47:51;23.80;64.30
40289;DHT22;28991;52.028;5.526;2023-09-19T00:50:18;23.80;64.30
40289;DHT22;28991;52.028;5.526;2023-09-19T00:52:46;23.80;64.30
40289;DHT22;28991;52.028;5.526;2023-09-19T00:55:14;23.80;64.30
40289;DHT22;28991;52.028;5.526;2023-09-19T00:57:41;23.80;64.30
40289;DHT22;28991;52.028;5.526;2023-09-19T01:00:08;23.80;64.30
40289;DHT22;28991;52.028;5.526;2023-09-19T01:02:37;23.80;64.30
40289;DHT22;28991;52.028;5.526;2023-09-19T01:05:03;23.70;64.30
40289;DHT22;28991;52.028;5.526;2023-09-19T01:07:31;23.80;64.30
40289;DHT22;28991;52.028;5.526;2023-09-19T01:09:58;23.80;64.30
40289;DHT22;28991;52.028;5.526;2023-09-19T01:17:53;23.80;64.30
40289;DHT22;28991;52.028;5.526;2023-09-19T01:23:09;23.80;64.30
40289;DHT22;28991;52.028;5.526;2023-09-19T01:28:20;23.80;64.30
40289;DHT22;28991;52.028;5.526;2023-09-19T01:30:47;23.80;64.30
40289;DHT22;28991;52.028;5.526;2023-09-19T01:33:16;23.80;64.30
40289;DHT22;28991;52.028;5.526;2023-09-19T01:35:42;23.80;64.30
40289;DHT22;28991;52.028;5.526;2023-09-19T01:38:07;23.80;64.30
40289;DHT22;28991;52.028;5.526;2023-09-19T01:40:41;23.80;64.30
40289;DHT22;28991;52.028;5.526;2023-09-19T01:43:27;23.80;64.30
40289;DHT22;28991;52.028;5.526;2023-09-19T01:46:12;23.80;64.30
40289;DHT22;28991;52.028;5.526;2023-09-19T01:49:03;23.80;64.30
40289;DHT22;28991;52.028;5.526;2023-09-19T01:51:56;23.80;64.40
40289;DHT22;28991;52.028;5.526;2023-09-19T01:54:31;23.70;64.30
40289;DHT22;28991;52.028;5.526;2023-09-19T01:59:37;23.70;64.30
40289;DHT22;28991;52.028;5.526;2023-09-19T02:02:06;23.70;64.20
40289;DHT22;28991;52.028;5.526;2023-09-19T02:04:33;23.80;64.20
40289;DHT22;28991;52.028;5.526;2023-09-19T02:07:00;23.80;64.30
40289;DHT22;28991;52.028;5.526;2023-09-19T02:09:26;23.70;64.20
40289;DHT22;28991;52.028;5.526;2023-09-19T02:11:52;23.80;64.30
40289;DHT22;28991;52.028;5.526;2023-09-19T02:14:18;23.70;64.20
40289;DHT22;28991;52.028;5.526;2023-09-19T02:16:45;23.70;64.20
40289;DHT22;28991;52.028;5.526;2023-09-19T02:19:11;23.70;64.20
40289;DHT22;28991;52.028;5.526;2023-09-19T02:21:37;23.70;64.20
40289;DHT22;28991;52.028;5.526;2023-09-19T02:24:05;23.70;64.20
40289;DHT22;28991;52.028;5.526;2023-09-19T02:26:32;23.70;64.20
40289;DHT22;28991;52.028;5.526;2023-09-19T02:29:02;23.70;64.20
40289;DHT22;28991;52.028;5.526;2023-09-19T02:31:30;23.70;64.20
40289;DHT22;28991;52.028;5.526;2023-09-19T02:33:56;23.90;64.30
40289;DHT22;28991;52.028;5.526;2023-09-19T02:36:22;23.70;64.20
40289;DHT22;28991;52.028;5.526;2023-09-19T02:38:49;23.30;64.00
40289;DHT22;28991;52.028;5.526;2023-09-19T02:41:14;24.00;64.40
40289;DHT22;28991;52.028;5.526;2023-09-19T02:43:40;23.80;64.30
40289;DHT22;28991;52.028;5.526;2023-09-19T02:46:05;23.70;64.20
40289;DHT22;28991;52.028;5.526;2023-09-19T02:48:31;23.80;64.30
40289;DHT22;28991;52.028;5.526;2023-09-19T02:50:57;23.70;64.20
40289;DHT22;28991;52.028;5.526;2023-09-19T02:53:23;23.70;64.20
40289;DHT22;28991;52.028;5.526;2023-09-19T02:55:49;23.70;64.20
40289;DHT22;28991;52.028;5.526;2023-09-19T02:58:15;23.70;64.20
40289;DHT22;28991;52.028;5.526;2023-09-19T03:00:41;23.70;64.20
40289;DHT22;28991;52.028;5.526;2023-09-19T03:03:08;23.70;64.20
40289;DHT22;28991;52.028;5.526;2023-09-19T03:05:34;23.70;64.20
40289;DHT22;28991;52.028;5.526;2023-09-19T03:08:00;23.70;64.20
40289;DHT22;28991;52.028;5.526;2023-09-19T03:10:26;23.70;64.20
40289;DHT22;28991;52.028;5.526;2023-09-19T03:12:53;23.70;64.20
40289;DHT22;28991;52.028;5.526;2023-09-19T03:15:19;23.70;64.20
40289;DHT22;28991;52.028;5.526;2023-09-19T03:17:45;23.70;64.20
40289;DHT22;28991;52.028;5.526;2023-09-19T03:20:11;23.70;64.20
40289;DHT22;28991;52.028;5.526;2023-09-19T03:22:38;23.70;64.20
40289;DHT22;28991;52.028;5.526;2023-09-19T03:25:05;23.70;64.20
40289;DHT22;28991;52.028;5.526;2023-09-19T03:27:34;23.70;64.20
40289;DHT22;28991;52.028;5.526;2023-09-19T03:30:00;23.70;64.20
40289;DHT22;28991;52.028;5.526;2023-09-19T03:32:25;23.60;64.20
40289;DHT22;28991;52.028;5.526;2023-09-19T03:34:51;23.70;64.20
40289;DHT22;28991;52.028;5.526;2023-09-19T03:37:17;23.70;64.20
40289;DHT22;28991;52.028;5.526;2023-09-19T03:39:43;23.70;64.20
40289;DHT22;28991;52.028;5.526;2023-09-19T03:42:09;23.70;64.20
40289;DHT22;28991;52.028;5.526;2023-09-19T03:44:35;23.70;64.20
40289;DHT22;28991;52.028;5.526;2023-09-19T03:47:00;23.70;64.20
40289;DHT22;28991;52.028;5.526;2023-09-19T03:49:26;23.60;64.10
40289;DHT22;28991;52.028;5.526;2023-09-19T03:51:51;23.70;64.20
40289;DHT22;28991;52.028;5.526;2023-09-19T03:54:17;23.70;64.20
40289;DHT22;28991;52.028;5.526;2023-09-19T03:56:45;23.70;64.20
40289;DHT22;28991;52.028;5.526;2023-09-19T03:59:11;23.60;64.10
40289;DHT22;28991;52.028;5.526;2023-09-19T04:01:37;23.70;64.10
40289;DHT22;28991;52.028;5.526;2023-09-19T04:04:03;23.70;64.20
40289;DHT22;28991;52.028;5.526;2023-09-19T04:06:36;23.70;64.20
40289;DHT22;28991;52.028;5.526;2023-09-19T04:09:03;23.60;63.70
40289;DHT22;28991;52.028;5.526;2023-09-19T04:11:29;23.60;63.10
40289;DHT22;28991;52.028;5.526;2023-09-19T04:13:55;23.60;62.40
40289;DHT22;28991;52.028;5.526;2023-09-19T04:16:21;23.60;61.60
40289;DHT22;28991;52.028;5.526;2023-09-19T04:18:47;23.60;60.70
40289;DHT22;28991;52.028;5.526;2023-09-19T04:21:13;23.50;59.80
40289;DHT22;28991;52.028;5.526;2023-09-19T04:23:38;23.50;59.20
40289;DHT22;28991;52.028;5.526;2023-09-19T04:26:04;23.50;58.40
40289;DHT22;28991;52.028;5.526;2023-09-19T04:28:30;23.40;57.90
40289;DHT22;28991;52.028;5.526;2023-09-19T04:30:56;23.40;57.30
40289;DHT22;28991;52.028;5.526;2023-09-19T04:33:23;23.40;56.40
40289;DHT22;28991;52.028;5.526;2023-09-19T04:35:51;23.30;55.80
40289;DHT22;28991;52.028;5.526;2023-09-19T04:38:18;23.30;55.10
40289;DHT22;28991;52.028;5.526;2023-09-19T04:40:45;23.40;54.70
40289;DHT22;28991;52.028;5.526;2023-09-19T04:43:10;23.20;54.40
40289;DHT22;28991;52.028;5.526;2023-09-19T04:45:38;23.10;54.00
40289;DHT22;28991;52.028;5.526;2023-09-19T04:48:04;23.10;53.70
40289;DHT22;28991;52.028;5.526;2023-09-19T04:50:32;23.00;53.70
40289;DHT22;28991;52.028;5.526;2023-09-19T04:52:59;23.00;53.50
40289;DHT22;28991;52.028;5.526;2023-09-19T04:55:25;23.00;53.40
40289;DHT22;28991;52.028;5.526;2023-09-19T04:57:51;22.90;53.20
40289;DHT22;28991;52.028;5.526;2023-09-19T05:00:19;22.90;53.10
40289;DHT22;28991;52.028;5.526;2023-09-19T05:02:52;22.80;53.00
40289;DHT22;28991;52.028;5.526;2023-09-19T05:05:18;22.80;52.80
40289;DHT22;28991;52.028;5.526;2023-09-19T05:07:45;22.80;53.00
40289;DHT22;28991;52.028;5.526;2023-09-19T05:10:11;22.70;52.60
40289;DHT22;28991;52.028;5.526;2023-09-19T05:12:39;22.70;52.80
40289;DHT22;28991;52.028;5.526;2023-09-19T05:15:05;22.70;52.90
40289;DHT22;28991;52.028;5.526;2023-09-19T05:17:34;22.70;52.80
40289;DHT22;28991;52.028;5.526;2023-09-19T05:20:01;22.70;52.80
40289;DHT22;28991;52.028;5.526;2023-09-19T05:22:41;22.70;52.80
40289;DHT22;28991;52.028;5.526;2023-09-19T05:25:07;22.60;52.60
40289;DHT22;28991;52.028;5.526;2023-09-19T05:27:32;22.60;52.70
40289;DHT22;28991;52.028;5.526;2023-09-19T05:29:59;22.50;52.90
40289;DHT22;28991;52.028;5.526;2023-09-19T05:32:25;22.70;52.90
40289;DHT22;28991;52.028;5.526;2023-09-19T05:34:50;22.60;52.90
40289;DHT22;28991;52.028;5.526;2023-09-19T05:37:19;22.70;52.90
40289;DHT22;28991;52.028;5.526;2023-09-19T05:39:44;22.70;52.90
40289;DHT22;28991;52.028;5.526;2023-09-19T05:42:10;22.70;52.80
40289;DHT22;28991;52.028;5.526;2023-09-19T05:44:36;22.80;52.80
40289;DHT22;28991;52.028;5.526;2023-09-19T05:47:02;22.80;52.70
40289;DHT22;28991;52.028;5.526;2023-09-19T05:49:28;22.80;52.90
40289;DHT22;28991;52.028;5.526;2023-09-19T05:51:54;22.80;52.70
40289;DHT22;28991;52.028;5.526;2023-09-19T05:54:21;22.90;52.30
40289;DHT22;28991;52.028;5.526;2023-09-19T05:56:47;22.90;52.40
40289;DHT22;28991;52.028;5.526;2023-09-19T05:59:14;22.90;52.20
40289;DHT22;28991;52.028;5.526;2023-09-19T06:01:44;22.80;52.30
40289;DHT22;28991;52.028;5.526;2023-09-19T06:04:09;22.90;52.20
40289;DHT22;28991;52.028;5.526;2023-09-19T06:06:35;22.90;52.30
40289;DHT22;28991;52.028;5.526;2023-09-19T06:09:04;22.90;52.30
40289;DHT22;28991;52.028;5.526;2023-09-19T06:11:31;22.90;53.00
40289;DHT22;28991;52.028;5.526;2023-09-19T06:14:00;22.90;52.70
40289;DHT22;28991;52.028;5.526;2023-09-19T06:16:30;22.90;52.70
40289;DHT22;28991;52.028;5.526;2023-09-19T06:18:58;22.90;52.60
40289;DHT22;28991;52.028;5.526;2023-09-19T06:21:26;23.00;52.80
40289;DHT22;28991;52.028;5.526;2023-09-19T06:23:55;23.00;52.70
40289;DHT22;28991;52.028;5.526;2023-09-19T06:26:23;23.00;53.00
40289;DHT22;28991;52.028;5.526;2023-09-19T06:28:49;23.10;53.10
40289;DHT22;28991;52.028;5.526;2023-09-19T06:31:14;23.10;53.20
40289;DHT22;28991;52.028;5.526;2023-09-19T06:33:40;23.10;53.10
40289;DHT22;28991;52.028;5.526;2023-09-19T06:36:06;23.10;53.20
40289;DHT22;28991;52.028;5.526;2023-09-19T06:38:32;23.10;53.20
40289;DHT22;28991;52.028;5.526;2023-09-19T06:41:01;23.20;53.20
40289;DHT22;28991;52.028;5.526;2023-09-19T06:43:31;23.20;53.30
40289;DHT22;28991;52.028;5.526;2023-09-19T06:45:58;23.20;53.10
40289;DHT22;28991;52.028;5.526;2023-09-19T06:48:24;23.20;53.20
40289;DHT22;28991;52.028;5.526;2023-09-19T06:50:50;23.20;53.30
40289;DHT22;28991;52.028;5.526;2023-09-19T06:53:18;23.20;53.30
40289;DHT22;28991;52.028;5.526;2023-09-19T06:55:43;23.20;53.60
40289;DHT22;28991;52.028;5.526;2023-09-19T06:58:10;23.20;53.50
40289;DHT22;28991;52.028;5.526;2023-09-19T07:00:36;23.20;53.30
40289;DHT22;28991;52.028;5.526;2023-09-19T07:03:07;23.20;53.30
40289;DHT22;28991;52.028;5.526;2023-09-19T07:05:38;23.30;53.50
40289;DHT22;28991;52.028;5.526;2023-09-19T07:08:05;23.30;53.60
40289;DHT22;28991;52.028;5.526;2023-09-19T07:10:32;23.30;53.70
40289;DHT22;28991;52.028;5.526;2023-09-19T07:13:05;23.30;53.70
40289;DHT22;28991;52.028;5.526;2023-09-19T07:15:34;23.30;53.70
40289;DHT22;28991;52.028;5.526;2023-09-19T07:18:07;23.40;54.00
40289;DHT22;28991;52.028;5.526;2023-09-19T07:20:36;23.40;54.00
40289;DHT22;28991;52.028;5.526;2023-09-19T07:23:02;23.40;54.00
40289;DHT22;28991;52.028;5.526;2023-09-19T07:25:28;23.40;54.00
40289;DHT22;28991;52.028;5.526;2023-09-19T07:27:58;23.40;54.10
40289;DHT22;28991;52.028;5.526;2023-09-19T07:30:25;23.40;54.30
40289;DHT22;28991;52.028;5.526;2023-09-19T07:32:51;23.40;54.20
40289;DHT22;28991;52.028;5.526;2023-09-19T07:35:17;23.60;54.40
40289;DHT22;28991;52.028;5.526;2023-09-19T07:37:45;23.30;54.40
40289;DHT22;28991;52.028;5.526;2023-09-19T07:40:15;23.30;54.60
40289;DHT22;28991;52.028;5.526;2023-09-19T07:42:40;23.20;54.60
40289;DHT22;28991;52.028;5.526;2023-09-19T07:45:09;23.30;54.70
40289;DHT22;28991;52.028;5.526;2023-09-19T07:47:35;23.30;54.70
40289;DHT22;28991;52.028;5.526;2023-09-19T07:50:01;23.20;54.70
40289;DHT22;28991;52.028;5.526;2023-09-19T07:52:28;23.20;54.70
40289;DHT22;28991;52.028;5.526;2023-09-19T07:54:54;23.20;54.80
40289;DHT22;28991;52.028;5.526;2023-09-19T07:57:20;23.20;54.90
40289;DHT22;28991;52.028;5.526;2023-09-19T07:59:46;23.20;54.90
40289;DHT22;28991;52.028;5.526;2023-09-19T08:02:11;23.20;55.00
40289;DHT22;28991;52.028;5.526;2023-09-19T08:04:46;23.20;55.10
40289;DHT22;28991;52.028;5.526;2023-09-19T08:07:12;23.10;55.10
40289;DHT22;28991;52.028;5.526;2023-09-19T08:09:41;23.10;55.10
40289;DHT22;28991;52.028;5.526;2023-09-19T08:12:07;23.20;55.10
40289;DHT22;28991;52.028;5.526;2023-09-19T08:14:37;23.10;55.10
40289;DHT22;28991;52.028;5.526;2023-09-19T08:17:06;23.20;55.20
40289;DHT22;28991;52.028;5.526;2023-09-19T08:19:33;23.10;55.20
40289;DHT22;28991;52.028;5.526;2023-09-19T08:21:59;23.10;55.20
40289;DHT22;28991;52.028;5.526;2023-09-19T08:24:28;23.20;55.30
40289;DHT22;28991;52.028;5.526;2023-09-19T08:26:55;20.90;54.10
40289;DHT22;28991;52.028;5.526;2023-09-19T08:29:22;23.20;55.30
40289;DHT22;28991;52.028;5.526;2023-09-19T08:31:53;23.90;55.70
40289;DHT22;28991;52.028;5.526;2023-09-19T08:34:19;23.10;55.30
40289;DHT22;28991;52.028;5.526;2023-09-19T08:36:44;23.10;55.30
40289;DHT22;28991;52.028;5.526;2023-09-19T08:39:10;23.20;55.30
40289;DHT22;28991;52.028;5.526;2023-09-19T08:41:36;23.10;55.30
40289;DHT22;28991;52.028;5.526;2023-09-19T08:44:02;22.00;54.70
40289;DHT22;28991;52.028;5.526;2023-09-19T08:46:30;23.10;55.30
40289;DHT22;28991;52.028;5.526;2023-09-19T08:49:23;23.10;55.30
40289;DHT22;28991;52.028;5.526;2023-09-19T08:51:58;23.10;55.40
40289;DHT22;28991;52.028;5.526;2023-09-19T08:54:29;23.20;55.50
40289;DHT22;28991;52.028;5.526;2023-09-19T08:57:01;23.10;55.50
40289;DHT22;28991;52.028;5.526;2023-09-19T08:59:33;23.20;55.60
40289;DHT22;28991;52.028;5.526;2023-09-19T09:02:01;23.20;55.60
40289;DHT22;28991;52.028;5.526;2023-09-19T09:04:29;23.10;55.60
40289;DHT22;28991;52.028;5.526;2023-09-19T09:06:56;23.20;55.70
40289;DHT22;28991;52.028;5.526;2023-09-19T09:09:23;23.20;55.70
40289;DHT22;28991;52.028;5.526;2023-09-19T09:11:50;23.20;55.70
40289;DHT22;28991;52.028;5.526;2023-09-19T09:14:19;23.20;55.70
40289;DHT22;28991;52.028;5.526;2023-09-19T09:16:45;23.20;56.30
40289;DHT22;28991;52.028;5.526;2023-09-19T09:19:11;23.20;55.70
40289;DHT22;28991;52.028;5.526;2023-09-19T09:21:38;23.20;55.70
40289;DHT22;28991;52.028;5.526;2023-09-19T09:24:28;23.20;55.70
40289;DHT22;28991;52.028;5.526;2023-09-19T09:26:59;23.20;55.60
40289;DHT22;28991;52.028;5.526;2023-09-19T09:29:45;21.10;54.50
40289;DHT22;28991;52.028;5.526;2023-09-19T09:34:44;23.20;55.40
40289;DHT22;28991;52.028;5.526;2023-09-19T09:37:17;23.20;55.40
40289;DHT22;28991;52.028;5.526;2023-09-19T09:39:51;23.20;55.20
40289;DHT22;28991;52.028;5.526;2023-09-19T09:42:36;23.40;55.00
40289;DHT22;28991;52.028;5.526;2023-09-19T09:45:15;23.40;55.00
40289;DHT22;28991;52.028;5.526;2023-09-19T09:47:46;23.40;54.70
40289;DHT22;28991;52.028;5.526;2023-09-19T09:50:26;23.40;54.70
40289;DHT22;28991;52.028;5.526;2023-09-19T09:52:56;23.50;54.60
40289;DHT22;28991;52.028;5.526;2023-09-19T09:56:09;23.50;54.90
40289;DHT22;28991;52.028;5.526;2023-09-19T09:58:50;23.40;54.70
40289;DHT22;28991;52.028;5.526;2023-09-19T10:01:20;23.40;54.90
40289;DHT22;28991;52.028;5.526;2023-09-19T10:03:46;23.30;54.60
40289;DHT22;28991;52.028;5.526;2023-09-19T10:06:18;23.40;54.60
40289;DHT22;28991;52.028;5.526;2023-09-19T10:09:00;23.40;54.50
40289;DHT22;28991;52.028;5.526;2023-09-19T10:11:46;23.40;54.50
40289;DHT22;28991;52.028;5.526;2023-09-19T10:14:17;23.50;54.40
40289;DHT22;28991;52.028;5.526;2023-09-19T10:16:49;23.60;54.40
40289;DHT22;28991;52.028;5.526;2023-09-19T10:19:29;23.50;54.10
40289;DHT22;28991;52.028;5.526;2023-09-19T10:21:55;23.60;54.00
40289;DHT22;28991;52.028;5.526;2023-09-19T10:24:22;23.60;53.70
40289;DHT22;28991;52.028;5.526;2023-09-19T10:26:50;23.70;54.10
40289;DHT22;28991;52.028;5.526;2023-09-19T10:29:17;23.70;53.80
40289;DHT22;28991;52.028;5.526;2023-09-19T10:31:47;23.80;53.80
40289;DHT22;28991;52.028;5.526;2023-09-19T10:34:17;23.80;53.90
40289;DHT22;28991;52.028;5.526;2023-09-19T10:36:46;24.00;54.00
40289;DHT22;28991;52.028;5.526;2023-09-19T10:39:16;23.90;53.90
40289;DHT22;28991;52.028;5.526;2023-09-19T10:41:51;23.90;53.90
40289;DHT22;28991;52.028;5.526;2023-09-19T10:44:24;23.90;54.00
40289;DHT22;28991;52.028;5.526;2023-09-19T10:46:54;23.90;54.00
40289;DHT22;28991;52.028;5.526;2023-09-19T10:49:20;23.90;53.80
40289;DHT22;28991;52.028;5.526;2023-09-19T10:51:48;23.90;53.80
40289;DHT22;28991;52.028;5.526;2023-09-19T10:54:18;23.90;54.10
40289;DHT22;28991;52.028;5.526;2023-09-19T10:56:49;24.00;53.70
40289;DHT22;28991;52.028;5.526;2023-09-19T10:59:18;23.80;53.90
40289;DHT22;28991;52.028;5.526;2023-09-19T11:01:48;23.90;54.20
40289;DHT22;28991;52.028;5.526;2023-09-19T11:04:30;25.60;55.10
40289;DHT22;28991;52.028;5.526;2023-09-19T11:07:15;23.80;54.10
40289;DHT22;28991;52.028;5.526;2023-09-19T11:09:47;23.80;54.20
40289;DHT22;28991;52.028;5.526;2023-09-19T11:15:00;23.80;54.20
40289;DHT22;28991;52.028;5.526;2023-09-19T11:17:36;24.10;53.80
40289;DHT22;28991;52.028;5.526;2023-09-19T11:28:27;24.40;52.40
40289;DHT22;28991;52.028;5.526;2023-09-19T11:30:53;24.40;52.70
40289;DHT22;28991;52.028;5.526;2023-09-19T11:33:20;24.50;52.40
40289;DHT22;28991;52.028;5.526;2023-09-19T11:36:03;24.50;52.30
40289;DHT22;28991;52.028;5.526;2023-09-19T11:46:52;24.50;52.60
40289;DHT22;28991;52.028;5.526;2023-09-19T11:49:19;24.40;52.70
40289;DHT22;28991;52.028;5.526;2023-09-19T11:51:51;24.40;52.70
40289;DHT22;28991;52.028;5.526;2023-09-19T11:54:19;24.50;52.80
40289;DHT22;28991;52.028;5.526;2023-09-19T11:56:49;24.50;52.80
40289;DHT22;28991;52.028;5.526;2023-09-19T11:59:22;24.50;52.70
40289;DHT22;28991;52.028;5.526;2023-09-19T12:01:53;24.40;52.50
40289;DHT22;28991;52.028;5.526;2023-09-19T12:06:59;24.40;52.50
40289;DHT22;28991;52.028;5.526;2023-09-19T12:09:25;24.40;52.40
40289;DHT22;28991;52.028;5.526;2023-09-19T12:11:51;24.40;52.60
40289;DHT22;28991;52.028;5.526;2023-09-19T12:14:26;24.40;52.40
40289;DHT22;28991;52.028;5.526;2023-09-19T12:16:56;24.30;52.40
40289;DHT22;28991;52.028;5.526;2023-09-19T12:19:23;24.30;52.40
40289;DHT22;28991;52.028;5.526;2023-09-19T12:21:59;24.20;52.60
40289;DHT22;28991;52.028;5.526;2023-09-19T12:24:29;24.20;52.60
40289;DHT22;28991;52.028;5.526;2023-09-19T12:27:04;24.20;52.70
40289;DHT22;28991;52.028;5.526;2023-09-19T12:29:31;24.20;52.60
40289;DHT22;28991;52.028;5.526;2023-09-19T12:31:58;24.20;52.70
40289;DHT22;28991;52.028;5.526;2023-09-19T12:34:26;24.20;52.50
40289;DHT22;28991;52.028;5.526;2023-09-19T12:37:26;24.20;52.60
40289;DHT22;28991;52.028;5.526;2023-09-19T12:40:07;24.20;52.60
40289;DHT22;28991;52.028;5.526;2023-09-19T12:42:41;24.20;52.50
40289;DHT22;28991;52.028;5.526;2023-09-19T12:45:07;24.20;52.50
40289;DHT22;28991;52.028;5.526;2023-09-19T12:47:35;24.20;52.60
40289;DHT22;28991;52.028;5.526;2023-09-19T12:50:11;24.20;52.60
40289;DHT22;28991;52.028;5.526;2023-09-19T12:52:55;24.10;52.60
40289;DHT22;28991;52.028;5.526;2023-09-19T12:55:29;24.20;52.60
40289;DHT22;28991;52.028;5.526;2023-09-19T12:58:13;24.20;52.60
40289;DHT22;28991;52.028;5.526;2023-09-19T13:00:42;24.20;52.60
40289;DHT22;28991;52.028;5.526;2023-09-19T13:05:57;24.20;52.60
40289;DHT22;28991;52.028;5.526;2023-09-19T13:09:07;24.10;52.60
40289;DHT22;28991;52.028;5.526;2023-09-19T13:11:36;24.10;52.70
40289;DHT22;28991;52.028;5.526;2023-09-19T13:14:23;24.10;53.10
40289;DHT22;28991;52.028;5.526;2023-09-19T13:17:03;24.10;52.70
40289;DHT22;28991;52.028;5.526;2023-09-19T13:19:39;24.00;52.60
40289;DHT22;28991;52.028;5.526;2023-09-19T13:22:35;24.20;52.80
40289;DHT22;28991;52.028;5.526;2023-09-19T13:24:51;23.90;52.70
40289;DHT22;28991;52.028;5.526;2023-09-19T13:27:17;24.00;52.70
40289;DHT22;28991;52.028;5.526;2023-09-19T13:29:43;24.00;52.60
40289;DHT22;28991;52.028;5.526;2023-09-19T13:32:08;24.00;52.60
40289;DHT22;28991;52.028;5.526;2023-09-19T13:34:36;24.20;52.70
40289;DHT22;28991;52.028;5.526;2023-09-19T13:37:03;24.00;52.60
40289;DHT22;28991;52.028;5.526;2023-09-19T13:39:30;24.00;52.50
40289;DHT22;28991;52.028;5.526;2023-09-19T13:41:55;24.00;52.60
40289;DHT22;28991;52.028;5.526;2023-09-19T13:44:21;24.10;52.60
40289;DHT22;28991;52.028;5.526;2023-09-19T13:46:46;24.00;52.60
40289;DHT22;28991;52.028;5.526;2023-09-19T13:49:12;24.00;52.60
40289;DHT22;28991;52.028;5.526;2023-09-19T13:51:38;24.00;52.60
40289;DHT22;28991;52.028;5.526;2023-09-19T13:54:03;23.90;52.60
40289;DHT22;28991;52.028;5.526;2023-09-19T13:56:29;24.00;52.60
40289;DHT22;28991;52.028;5.526;2023-09-19T13:58:55;24.00;52.70
40289;DHT22;28991;52.028;5.526;2023-09-19T14:01:21;24.00;52.90
40289;DHT22;28991;52.028;5.526;2023-09-19T14:03:46;23.90;52.90
40289;DHT22;28991;52.028;5.526;2023-09-19T14:06:16;23.90;53.00
40289;DHT22;28991;52.028;5.526;2023-09-19T14:08:43;23.90;53.00
40289;DHT22;28991;52.028;5.526;2023-09-19T14:11:09;23.90;53.10
40289;DHT22;28991;52.028;5.526;2023-09-19T14:13:35;24.00;53.10
40289;DHT22;28991;52.028;5.526;2023-09-19T14:16:05;24.00;53.20
40289;DHT22;28991;52.028;5.526;2023-09-19T14:18:31;24.00;53.20
40289;DHT22;28991;52.028;5.526;2023-09-19T14:20:57;24.10;53.30
40289;DHT22;28991;52.028;5.526;2023-09-19T14:23:22;24.00;53.30
40289;DHT22;28991;52.028;5.526;2023-09-19T14:25:50;24.00;53.20
40289;DHT22;28991;52.028;5.526;2023-09-19T14:28:15;24.00;53.20
40289;DHT22;28991;52.028;5.526;2023-09-19T14:30:41;24.00;53.30
40289;DHT22;28991;52.028;5.526;2023-09-19T14:33:07;24.00;53.30
40289;DHT22;28991;52.028;5.526;2023-09-19T14:35:32;24.00;53.40
40289;DHT22;28991;52.028;5.526;2023-09-19T14:37:58;24.10;53.50
40289;DHT22;28991;52.028;5.526;2023-09-19T14:40:27;24.10;53.50
40289;DHT22;28991;52.028;5.526;2023-09-19T14:42:52;24.10;53.60
40289;DHT22;28991;52.028;5.526;2023-09-19T14:45:18;24.00;53.60
40289;DHT22;28991;52.028;5.526;2023-09-19T14:47:46;24.00;53.70
40289;DHT22;28991;52.028;5.526;2023-09-19T14:50:11;23.90;53.60
40289;DHT22;28991;52.028;5.526;2023-09-19T14:52:38;24.10;53.70
40289;DHT22;28991;52.028;5.526;2023-09-19T14:55:06;24.00;54.30
40289;DHT22;28991;52.028;5.526;2023-09-19T14:57:32;24.00;53.80
40289;DHT22;28991;52.028;5.526;2023-09-19T15:00:06;24.00;54.40
40289;DHT22;28991;52.028;5.526;2023-09-19T15:02:37;24.00;53.90
40289;DHT22;28991;52.028;5.526;2023-09-19T15:05:03;24.00;54.00
40289;DHT22;28991;52.028;5.526;2023-09-19T15:07:28;23.90;54.00
40289;DHT22;28991;52.028;5.526;2023-09-19T15:09:54;23.90;54.00
40289;DHT22;28991;52.028;5.526;2023-09-19T15:12:19;23.90;54.10
40289;DHT22;28991;52.028;5.526;2023-09-19T15:14:45;23.90;54.10
40289;DHT22;28991;52.028;5.526;2023-09-19T15:17:11;23.90;54.10
40289;DHT22;28991;52.028;5.526;2023-09-19T15:19:36;23.90;54.20
40289;DHT22;28991;52.028;5.526;2023-09-19T15:22:03;23.90;54.30
40289;DHT22;28991;52.028;5.526;2023-09-19T15:24:29;23.90;54.30
40289;DHT22;28991;52.028;5.526;2023-09-19T15:26:54;23.90;54.30
40289;DHT22;28991;52.028;5.526;2023-09-19T15:29:21;23.80;54.30
40289;DHT22;28991;52.028;5.526;2023-09-19T15:31:46;23.90;54.40
40289;DHT22;28991;52.028;5.526;2023-09-19T15:34:12;23.90;54.40
40289;DHT22;28991;52.028;5.526;2023-09-19T15:36:41;23.80;54.40
40289;DHT22;28991;52.028;5.526;2023-09-19T15:39:07;23.80;54.50
40289;DHT22;28991;52.028;5.526;2023-09-19T15:41:37;23.80;54.50
40289;DHT22;28991;52.028;5.526;2023-09-19T15:44:04;23.80;54.50
40289;DHT22;28991;52.028;5.526;2023-09-19T15:46:31;23.80;54.50
40289;DHT22;28991;52.028;5.526;2023-09-19T15:49:00;23.70;54.60
40289;DHT22;28991;52.028;5.526;2023-09-19T15:51:26;23.80;54.60
40289;DHT22;28991;52.028;5.526;2023-09-19T15:53:53;23.70;54.60
40289;DHT22;28991;52.028;5.526;2023-09-19T15:56:20;23.70;54.60
40289;DHT22;28991;52.028;5.526;2023-09-19T15:58:53;23.80;54.70
40289;DHT22;28991;52.028;5.526;2023-09-19T16:01:22;23.70;54.70
40289;DHT22;28991;52.028;5.526;2023-09-19T16:03:50;23.70;54.70
40289;DHT22;28991;52.028;5.526;2023-09-19T16:06:21;23.70;54.70
40289;DHT22;28991;52.028;5.526;2023-09-19T16:08:50;23.80;54.80
40289;DHT22;28991;52.028;5.526;2023-09-19T16:11:17;23.70;54.80
40289;DHT22;28991;52.028;5.526;2023-09-19T16:13:43;23.80;54.90
40289;DHT22;28991;52.028;5.526;2023-09-19T16:16:11;23.70;54.90
40289;DHT22;28991;52.028;5.526;2023-09-19T16:18:48;23.80;54.90
40289;DHT22;28991;52.028;5.526;2023-09-19T16:21:15;23.70;54.90